Terminal Aerodrome Forecast
Issued by NWS

Home | Current Version | Previous Version | Text Only | Print | Product List | Glossary On
Versions: 1 2 3 4 5 6 7 8 9 10 11 12 13 14 15 16 17 18 19 20 21 22 23 24 25 26 27 28 29 30 31
000
FTUS41 KOKX 011900 AAA
TAFGON
TAF AMD
KGON 011931Z 0120/0218 36010G18KT 5SM -SHRA BR OVC012
     FM020100 02012G18KT 4SM -RA BR OVC008
     FM021600 03015G22KT 6SM RA BR OVC012=

USA.gov is the U.S. government's official web portal to all federal, state and local government web resources and services.